createdAt,value
2022-08-22T00:00:13.486Z,100.00
2022-08-22T00:02:21.530Z,100.00
2022-08-22T00:02:45.442Z,79.11
2022-08-22T00:02:46.586Z,100.00
2022-08-22T00:04:33.389Z,100.00
2022-08-22T00:06:43.709Z,100.00
2022-08-22T00:08:55.583Z,100.00
2022-08-22T00:11:02.513Z,100.00
2022-08-22T00:13:09.617Z,100.00
2022-08-22T00:15:42.070Z,100.00
2022-08-22T00:17:45.006Z,100.00
2022-08-22T00:19:51.163Z,100.00
2022-08-22T00:21:58.683Z,100.00
2022-08-22T00:24:09.645Z,100.00
2022-08-22T00:26:22.942Z,100.00
2022-08-22T00:28:31.667Z,100.00
2022-08-22T00:30:47.804Z,100.00
2022-08-22T00:32:54.334Z,100.00
2022-08-22T00:35:01.397Z,100.00
2022-08-22T00:37:09.057Z,100.00
2022-08-22T00:39:16.273Z,100.00
2022-08-22T00:41:31.365Z,100.00
2022-08-22T00:44:07.812Z,100.00
2022-08-22T00:46:24.432Z,100.00
2022-08-22T00:49:03.723Z,100.00
2022-08-22T00:51:20.169Z,100.00
2022-08-22T00:53:36.214Z,100.00
2022-08-22T00:55:53.873Z,100.00
2022-08-22T00:58:28.875Z,100.00
2022-08-22T01:00:41.929Z,100.00
2022-08-22T01:02:58.557Z,100.00
2022-08-22T01:05:17.118Z,100.00
2022-08-22T01:07:38.111Z,100.00
2022-08-22T01:09:50.622Z,100.00
2022-08-22T01:12:06.835Z,100.00
2022-08-22T01:14:20.099Z,100.00
2022-08-22T01:16:54.867Z,100.00
2022-08-22T01:19:13.111Z,100.00
2022-08-22T01:21:42.268Z,100.00
2022-08-22T01:24:33.768Z,100.00
2022-08-22T01:27:03.643Z,100.00
2022-08-22T01:29:46.088Z,100.00
2022-08-22T01:32:15.555Z,100.00
2022-08-22T01:34:41.602Z,100.00
2022-08-22T01:37:11.616Z,100.00
2022-08-22T01:39:44.553Z,100.00
2022-08-22T01:42:25.434Z,100.00
2022-08-22T01:44:44.858Z,100.00
2022-08-22T01:46:56.202Z,100.00
2022-08-22T01:49:06.747Z,100.00
2022-08-22T01:51:22.078Z,100.00
2022-08-22T01:53:28.172Z,100.00
2022-08-22T01:55:33.343Z,100.00
2022-08-22T01:57:50.551Z,100.00
2022-08-22T01:59:57.327Z,100.00
2022-08-22T02:02:04.926Z,100.00
2022-08-22T02:04:13.081Z,100.00
2022-08-22T02:06:20.919Z,100.00
2022-08-22T02:08:28.388Z,100.00
2022-08-22T02:10:44.889Z,100.00
2022-08-22T02:12:56.180Z,100.00
2022-08-22T02:15:07.269Z,100.00
2022-08-22T02:17:17.474Z,100.00
2022-08-22T02:19:33.065Z,100.00
2022-08-22T02:21:44.923Z,100.00
2022-08-22T02:23:59.316Z,100.00
2022-08-22T02:26:08.489Z,100.00
2022-08-22T02:28:14.244Z,100.00
2022-08-22T02:30:19.171Z,100.00
2022-08-22T02:32:28.477Z,100.00
2022-08-22T02:34:37.978Z,100.00
2022-08-22T02:36:47.794Z,100.00
2022-08-22T02:39:00.116Z,100.00
2022-08-22T02:41:11.515Z,100.00
2022-08-22T02:43:19.111Z,100.00
2022-08-22T02:45:28.122Z,100.00
2022-08-22T02:47:35.288Z,100.00
2022-08-22T02:49:48.391Z,100.00
2022-08-22T02:51:56.771Z,100.00
2022-08-22T02:54:08.953Z,100.00
2022-08-22T02:56:15.690Z,100.00
2022-08-22T02:58:24.736Z,100.00
2022-08-22T03:00:32.661Z,100.00
2022-08-22T03:02:38.237Z,100.00
2022-08-22T03:04:50.326Z,100.00
2022-08-22T03:07:09.653Z,100.00
2022-08-22T03:09:24.591Z,100.00
2022-08-22T03:11:30.185Z,100.00
2022-08-22T03:13:41.166Z,100.00
2022-08-22T03:15:49.624Z,100.00
2022-08-22T03:17:58.110Z,100.00
2022-08-22T03:20:06.651Z,100.00
2022-08-22T03:22:15.252Z,100.00
2022-08-22T03:24:22.944Z,100.00
2022-08-22T03:26:28.503Z,100.00
2022-08-22T03:28:33.890Z,100.00
2022-08-22T03:30:42.431Z,100.00
2022-08-22T03:32:52.324Z,100.00
2022-08-22T03:34:58.019Z,100.00
2022-08-22T03:37:07.351Z,100.00
2022-08-22T03:39:19.352Z,100.00
2022-08-22T03:41:44.767Z,100.00
2022-08-22T03:44:12.098Z,100.00
2022-08-22T03:46:46.817Z,100.00
2022-08-22T03:49:20.383Z,100.00
2022-08-22T03:51:42.323Z,100.00
2022-08-22T03:54:19.209Z,100.00
2022-08-22T03:56:44.854Z,100.00
2022-08-22T03:59:13.726Z,100.00
2022-08-22T04:02:01.419Z,100.00
2022-08-22T04:04:31.828Z,100.00
2022-08-22T04:06:56.443Z,100.00
2022-08-22T04:09:35.854Z,100.00
2022-08-22T04:11:51.085Z,100.00
2022-08-22T04:14:40.899Z,100.00
2022-08-22T04:17:05.652Z,100.00
2022-08-22T04:19:31.221Z,100.00
2022-08-22T04:21:43.791Z,100.00
2022-08-22T04:24:01.257Z,100.00
2022-08-22T04:26:12.375Z,100.00
2022-08-22T04:28:20.801Z,100.00
2022-08-22T04:30:28.692Z,100.00
2022-08-22T04:32:37.048Z,100.00
2022-08-22T04:34:44.133Z,100.00
2022-08-22T04:36:50.749Z,100.00
2022-08-22T04:38:59.738Z,100.00
2022-08-22T04:41:10.928Z,100.00
2022-08-22T04:43:18.839Z,100.00
2022-08-22T04:45:25.045Z,100.00
2022-08-22T04:47:32.374Z,100.00
2022-08-22T04:49:38.659Z,100.00
2022-08-22T04:51:43.644Z,100.00
2022-08-22T04:53:57.264Z,100.00
2022-08-22T04:56:12.512Z,100.00
2022-08-22T04:58:25.792Z,100.00
2022-08-22T05:00:38.039Z,100.00
2022-08-22T05:02:45.518Z,100.00
2022-08-22T05:04:59.128Z,100.00
2022-08-22T05:07:06.608Z,100.00
2022-08-22T05:09:16.036Z,100.00
2022-08-22T05:11:23.562Z,100.00
2022-08-22T05:13:31.153Z,100.00
2022-08-22T05:15:36.800Z,100.00
2022-08-22T05:17:40.225Z,100.00
2022-08-22T05:19:46.484Z,100.00
2022-08-22T05:21:50.743Z,100.00
2022-08-22T05:23:56.666Z,100.00
2022-08-22T05:26:02.948Z,100.00
2022-08-22T05:28:11.830Z,100.00
2022-08-22T05:30:21.790Z,100.00
2022-08-22T05:32:29.049Z,100.00
2022-08-22T05:34:36.207Z,100.00
2022-08-22T05:36:42.433Z,100.00
2022-08-22T05:38:50.398Z,100.00
2022-08-22T05:40:57.347Z,100.00
2022-08-22T05:43:00.436Z,100.00
2022-08-22T05:45:12.206Z,100.00
2022-08-22T05:47:22.424Z,100.00
2022-08-22T05:49:33.437Z,100.00
2022-08-22T05:51:41.862Z,100.00
2022-08-22T05:53:48.432Z,100.00
2022-08-22T05:55:56.641Z,100.00
2022-08-22T05:58:19.688Z,100.00
2022-08-22T06:00:27.003Z,100.00
2022-08-22T06:02:46.577Z,100.00
2022-08-22T06:04:52.374Z,100.00
2022-08-22T06:07:00.842Z,98.28
2022-08-22T06:09:06.862Z,97.05
2022-08-22T06:11:15.492Z,96.46
2022-08-22T06:13:24.710Z,96.84
2022-08-22T06:15:34.421Z,98.45
2022-08-22T06:17:42.812Z,99.43
2022-08-22T06:19:47.947Z,99.31
2022-08-22T06:21:52.275Z,95.51
2022-08-22T06:23:58.947Z,98.18
2022-08-22T06:26:02.504Z,90.96
2022-08-22T06:28:08.263Z,86.35
2022-08-22T06:30:14.579Z,87.78
2022-08-22T06:32:44.599Z,80.32
2022-08-22T06:34:47.660Z,82.37
2022-08-22T06:36:51.858Z,78.34
2022-08-22T06:38:58.851Z,71.38
2022-08-22T06:41:03.273Z,67.62
2022-08-22T06:43:12.430Z,69.35
2022-08-22T06:45:19.743Z,64.60
2022-08-22T06:47:27.966Z,66.27
2022-08-22T06:49:32.181Z,68.74
2022-08-22T06:51:37.123Z,70.39
2022-08-22T06:53:47.654Z,68.22
2022-08-22T06:55:53.464Z,68.08
2022-08-22T06:57:59.043Z,70.86
2022-08-22T07:00:05.486Z,68.76
2022-08-22T07:02:16.901Z,65.38
2022-08-22T07:04:26.500Z,63.91
2022-08-22T07:06:31.773Z,62.30
2022-08-22T07:08:39.118Z,56.71
2022-08-22T07:10:43.604Z,53.61
2022-08-22T07:12:48.597Z,51.32
2022-08-22T07:14:55.367Z,48.72
2022-08-22T07:17:00.769Z,48.67
2022-08-22T07:19:03.904Z,46.59
2022-08-22T07:21:11.458Z,43.09
2022-08-22T07:23:24.837Z,41.96
2022-08-22T07:25:28.747Z,41.25
2022-08-22T07:27:44.395Z,39.67
2022-08-22T07:30:00.730Z,39.83
2022-08-22T07:32:12.469Z,40.41
2022-08-22T07:34:25.685Z,39.18
2022-08-22T07:36:33.182Z,39.72
2022-08-22T07:38:42.590Z,40.79
2022-08-22T07:40:51.922Z,38.33
2022-08-22T07:42:59.749Z,36.58
2022-08-22T07:45:07.160Z,38.11
2022-08-22T07:47:13.817Z,38.99
2022-08-22T07:49:21.774Z,34.83
2022-08-22T07:51:29.530Z,34.68
2022-08-22T07:53:40.984Z,35.25
2022-08-22T07:55:49.808Z,34.37
2022-08-22T07:57:55.733Z,34.65
2022-08-22T08:00:01.047Z,35.18
2022-08-22T08:02:07.203Z,34.48
2022-08-22T08:04:13.538Z,35.36
2022-08-22T08:06:17.207Z,35.20
2022-08-22T08:08:23.632Z,32.77
2022-08-22T08:10:34.488Z,32.39
2022-08-22T08:12:39.856Z,31.98
2022-08-22T08:14:45.135Z,31.95
2022-08-22T08:16:55.640Z,32.39
2022-08-22T08:19:00.005Z,31.39
2022-08-22T08:21:09.118Z,32.76
2022-08-22T08:23:22.251Z,31.92
2022-08-22T08:25:29.943Z,33.08
2022-08-22T08:27:53.922Z,33.58
2022-08-22T08:30:00.078Z,33.85
2022-08-22T08:32:03.167Z,33.60
2022-08-22T08:34:09.556Z,32.57
2022-08-22T08:36:24.911Z,32.15
2022-08-22T08:38:33.615Z,32.96
2022-08-22T08:40:55.418Z,33.24
2022-08-22T08:43:36.071Z,33.76
2022-08-22T08:45:58.274Z,32.35
2022-08-22T08:48:14.629Z,32.13
2022-08-22T08:50:37.188Z,32.67
2022-08-22T08:52:59.568Z,34.35
2022-08-22T08:55:22.480Z,34.47
2022-08-22T08:57:38.717Z,33.44
2022-08-22T08:59:46.281Z,33.14
2022-08-22T09:02:08.822Z,34.14
2022-08-22T09:04:36.054Z,33.75
2022-08-22T09:06:54.785Z,32.97
2022-08-22T09:09:24.724Z,32.31
2022-08-22T09:12:09.287Z,32.51
2022-08-22T09:14:23.898Z,32.19
2022-08-22T09:16:46.240Z,33.98
2022-08-22T09:19:20.581Z,33.21
2022-08-22T09:21:39.884Z,32.16
2022-08-22T09:24:08.661Z,32.03
2022-08-22T09:26:17.374Z,32.67
2022-08-22T09:28:28.304Z,34.20
2022-08-22T09:30:54.103Z,32.89
2022-08-22T09:33:00.939Z,33.08
2022-08-22T09:35:08.913Z,32.40
2022-08-22T09:37:19.504Z,31.86
2022-08-22T09:39:26.787Z,32.40
2022-08-22T09:41:39.028Z,32.46
2022-08-22T09:43:48.780Z,31.34
2022-08-22T09:46:02.008Z,33.20
2022-08-22T09:48:11.308Z,32.23
2022-08-22T09:50:17.668Z,32.66
2022-08-22T09:52:32.050Z,32.28
2022-08-22T09:54:42.662Z,31.76
2022-08-22T09:56:55.740Z,32.33
2022-08-22T09:59:04.378Z,31.50
2022-08-22T10:01:19.652Z,31.34
2022-08-22T10:03:29.768Z,30.29
2022-08-22T10:05:44.866Z,31.59
2022-08-22T10:08:11.754Z,30.70
2022-08-22T10:10:26.311Z,29.88
2022-08-22T10:12:36.058Z,29.95
2022-08-22T10:14:51.093Z,30.64
2022-08-22T10:17:08.767Z,31.03
2022-08-22T10:19:19.009Z,31.08
2022-08-22T10:21:31.579Z,31.48
2022-08-22T10:23:38.534Z,30.50
2022-08-22T10:25:45.926Z,32.06
2022-08-22T10:27:57.053Z,32.44
2022-08-22T10:30:07.062Z,32.41
2022-08-22T10:32:27.532Z,31.09
2022-08-22T10:34:34.622Z,31.71
2022-08-22T10:36:47.038Z,32.61
2022-08-22T10:38:54.783Z,32.43
2022-08-22T10:41:09.156Z,32.48
2022-08-22T10:43:16.115Z,32.69
2022-08-22T10:45:36.759Z,33.14
2022-08-22T10:48:01.323Z,33.00
2022-08-22T10:50:10.898Z,33.31
2022-08-22T10:52:21.831Z,31.92
2022-08-22T10:54:32.706Z,32.47
2022-08-22T10:56:43.881Z,33.00
2022-08-22T10:58:54.883Z,33.31
2022-08-22T11:01:00.405Z,31.94
2022-08-22T11:03:18.727Z,32.76
2022-08-22T11:05:37.905Z,32.58
2022-08-22T11:07:50.206Z,32.01
2022-08-22T11:09:57.645Z,32.73
2022-08-22T11:12:04.428Z,31.32
2022-08-22T11:14:38.074Z,31.61
2022-08-22T11:16:55.321Z,31.92
2022-08-22T11:19:15.571Z,31.70
2022-08-22T11:21:29.078Z,31.98
2022-08-22T11:23:45.152Z,31.86
2022-08-22T11:25:55.061Z,32.88
2022-08-22T11:28:32.569Z,33.10
2022-08-22T11:30:44.985Z,33.03
2022-08-22T11:33:16.901Z,32.32
2022-08-22T11:35:24.244Z,32.50
2022-08-22T11:37:48.653Z,32.99
2022-08-22T11:40:06.369Z,32.56
2022-08-22T11:42:21.871Z,32.13
2022-08-22T11:44:28.630Z,32.38
2022-08-22T11:46:35.364Z,31.09
2022-08-22T11:48:48.548Z,31.75
2022-08-22T11:50:56.457Z,31.23
2022-08-22T11:53:24.248Z,30.92
2022-08-22T11:55:32.996Z,32.47
2022-08-22T11:57:39.002Z,31.45
2022-08-22T12:00:01.810Z,30.73
2022-08-22T12:02:13.533Z,30.49
2022-08-22T12:04:20.131Z,30.91
2022-08-22T12:06:54.485Z,30.43
2022-08-22T12:09:13.166Z,30.68
2022-08-22T12:11:20.643Z,30.98
2022-08-22T12:13:35.608Z,31.11
2022-08-22T12:15:44.794Z,31.40
2022-08-22T12:18:27.018Z,30.79
2022-08-22T12:20:49.325Z,30.00
2022-08-22T12:23:08.619Z,30.09
2022-08-22T12:25:19.560Z,30.12
2022-08-22T12:27:48.283Z,30.54
2022-08-22T12:30:04.615Z,30.33
2022-08-22T12:32:44.053Z,30.03
2022-08-22T12:34:56.319Z,30.53
2022-08-22T12:37:12.916Z,31.01
2022-08-22T12:40:17.845Z,30.48
2022-08-22T12:42:33.145Z,29.52
2022-08-22T12:44:43.040Z,31.00
2022-08-22T12:46:56.824Z,30.16
2022-08-22T12:49:24.901Z,29.12
2022-08-22T12:51:32.451Z,29.21
2022-08-22T12:54:13.854Z,31.03
2022-08-22T12:56:29.561Z,32.24
2022-08-22T12:58:51.178Z,31.35
2022-08-22T13:01:00.688Z,31.60
2022-08-22T13:03:06.097Z,32.40
2022-08-22T13:05:19.695Z,31.87
2022-08-22T13:07:25.958Z,31.88
2022-08-22T13:09:31.472Z,31.64
2022-08-22T13:11:41.687Z,32.47
2022-08-22T13:13:55.989Z,31.78
2022-08-22T13:16:01.613Z,31.66
2022-08-22T13:18:29.237Z,31.93
2022-08-22T13:20:36.835Z,32.72
2022-08-22T13:22:45.603Z,33.38
2022-08-22T13:24:54.528Z,32.76
2022-08-22T13:27:05.717Z,32.71
2022-08-22T13:29:39.368Z,32.46
2022-08-22T13:31:42.506Z,32.58
2022-08-22T13:33:48.007Z,32.35
2022-08-22T13:35:54.745Z,32.61
2022-08-22T13:38:05.819Z,32.44
2022-08-22T13:40:12.188Z,32.63
2022-08-22T13:42:27.773Z,32.17
2022-08-22T13:44:40.047Z,32.18
2022-08-22T13:47:10.870Z,32.42
2022-08-22T13:49:09.160Z,32.61
2022-08-22T13:51:17.137Z,32.40
2022-08-22T13:53:27.697Z,32.63
2022-08-22T13:55:34.630Z,32.72
2022-08-22T13:57:41.800Z,32.67
2022-08-22T13:59:52.448Z,32.75
2022-08-22T14:02:00.854Z,33.23
2022-08-22T14:04:17.540Z,33.03
2022-08-22T14:06:37.986Z,32.79
2022-08-22T14:08:45.873Z,33.51
2022-08-22T14:10:55.205Z,33.78
2022-08-22T14:13:26.981Z,33.54
2022-08-22T14:15:33.961Z,33.69
2022-08-22T14:17:49.186Z,33.98
2022-08-22T14:19:58.798Z,33.93
2022-08-22T14:22:04.927Z,34.18
2022-08-22T14:24:14.527Z,34.46
2022-08-22T14:26:27.001Z,34.06
2022-08-22T14:28:39.021Z,34.29
2022-08-22T14:30:54.623Z,34.28
2022-08-22T14:33:09.963Z,33.85
2022-08-22T14:35:23.556Z,33.97
2022-08-22T14:37:39.012Z,34.12
2022-08-22T14:39:46.179Z,33.99
2022-08-22T14:41:56.561Z,34.23
2022-08-22T14:44:06.757Z,33.66
2022-08-22T14:46:14.290Z,33.89
2022-08-22T14:48:30.292Z,33.86
2022-08-22T14:50:42.244Z,34.44
2022-08-22T14:52:48.513Z,34.36
2022-08-22T14:55:08.177Z,33.46
2022-08-22T14:57:19.801Z,33.96
2022-08-22T14:59:38.951Z,34.25
2022-08-22T15:01:55.227Z,34.46
2022-08-22T15:04:03.213Z,34.33
2022-08-22T15:06:12.511Z,34.96
2022-08-22T15:08:24.207Z,34.90
2022-08-22T15:10:34.085Z,34.61
2022-08-22T15:12:40.251Z,34.92
2022-08-22T15:14:52.234Z,34.95
2022-08-22T15:16:58.245Z,34.34
2022-08-22T15:19:01.695Z,35.16
2022-08-22T15:21:10.267Z,34.94
2022-08-22T15:23:20.854Z,34.80
2022-08-22T15:25:27.458Z,34.73
2022-08-22T15:27:31.727Z,34.66
2022-08-22T15:29:51.852Z,34.16
2022-08-22T15:31:57.854Z,34.33
2022-08-22T15:34:11.668Z,35.05
2022-08-22T15:36:20.217Z,34.34
2022-08-22T15:38:29.581Z,35.02
2022-08-22T15:40:40.455Z,34.55
2022-08-22T15:42:46.034Z,34.02
2022-08-22T15:44:57.187Z,34.09
2022-08-22T15:47:05.262Z,34.62
2022-08-22T15:49:25.037Z,35.55
2022-08-22T15:51:38.374Z,35.60
2022-08-22T15:54:01.470Z,35.84
2022-08-22T15:56:29.249Z,35.61
2022-08-22T15:58:32.590Z,35.51
2022-08-22T16:00:43.806Z,35.92
2022-08-22T16:02:56.987Z,35.39
2022-08-22T16:05:18.825Z,35.39
2022-08-22T16:07:27.423Z,35.45
2022-08-22T16:09:36.861Z,35.74
2022-08-22T16:11:40.588Z,35.68
2022-08-22T16:13:46.181Z,35.55
2022-08-22T16:15:58.276Z,35.98
2022-08-22T16:18:01.376Z,35.47
2022-08-22T16:20:40.245Z,35.40
2022-08-22T16:23:07.596Z,35.76
2022-08-22T16:25:10.980Z,36.04
2022-08-22T16:27:21.152Z,35.45
2022-08-22T16:29:37.672Z,35.62
2022-08-22T16:31:58.366Z,35.47
2022-08-22T16:34:23.941Z,34.96
2022-08-22T16:36:45.530Z,34.82
2022-08-22T16:38:51.186Z,34.93
2022-08-22T16:40:54.676Z,35.12
2022-08-22T16:43:16.802Z,35.54
2022-08-22T16:45:22.995Z,35.45
2022-08-22T16:47:42.557Z,35.70
2022-08-22T16:49:59.145Z,35.87
2022-08-22T16:52:39.298Z,35.96
2022-08-22T16:54:44.467Z,36.18
2022-08-22T16:56:57.074Z,36.73
2022-08-22T16:59:23.302Z,36.71
2022-08-22T17:01:36.073Z,36.72
2022-08-22T17:03:47.391Z,37.16
2022-08-22T17:05:57.353Z,37.16
2022-08-22T17:08:14.809Z,36.71
2022-08-22T17:10:30.223Z,37.00
2022-08-22T17:12:45.780Z,37.53
2022-08-22T17:14:57.836Z,37.78
2022-08-22T17:17:17.441Z,37.80
2022-08-22T17:19:35.495Z,37.89
2022-08-22T17:21:41.602Z,38.32
2022-08-22T17:24:03.307Z,38.04
2022-08-22T17:26:20.935Z,38.26
2022-08-22T17:28:34.386Z,38.35
2022-08-22T17:30:41.976Z,38.50
2022-08-22T17:33:00.399Z,38.63
2022-08-22T17:35:15.942Z,38.85
2022-08-22T17:37:23.426Z,39.09
2022-08-22T17:39:41.905Z,38.84
2022-08-22T17:41:51.558Z,39.38
2022-08-22T17:44:03.663Z,39.58
2022-08-22T17:46:31.638Z,39.61
2022-08-22T17:48:41.984Z,39.77
2022-08-22T17:50:49.231Z,39.66
2022-08-22T17:52:55.691Z,40.88
2022-08-22T17:55:01.938Z,40.77
2022-08-22T17:57:08.653Z,40.41
2022-08-22T17:59:21.053Z,41.08
2022-08-22T18:01:46.737Z,41.20
2022-08-22T18:03:54.700Z,41.53
2022-08-22T18:06:07.866Z,42.00
2022-08-22T18:08:37.441Z,42.58
2022-08-22T18:10:45.165Z,42.14
2022-08-22T18:12:54.368Z,42.39
2022-08-22T18:15:01.063Z,43.32
2022-08-22T18:17:15.162Z,42.80
2022-08-22T18:19:36.307Z,43.36
2022-08-22T18:21:45.264Z,43.64
2022-08-22T18:23:51.615Z,43.69
2022-08-22T18:26:09.281Z,44.49
2022-08-22T18:28:22.996Z,44.59
2022-08-22T18:30:28.054Z,45.16
2022-08-22T18:32:35.669Z,45.24
2022-08-22T18:34:44.013Z,45.35
2022-08-22T18:36:55.322Z,45.57
2022-08-22T18:39:03.274Z,45.20
2022-08-22T18:41:13.068Z,45.43
2022-08-22T18:43:23.872Z,45.27
2022-08-22T18:46:11.890Z,46.05
2022-08-22T18:48:20.752Z,46.45
2022-08-22T18:50:30.388Z,46.20
2022-08-22T18:52:38.739Z,46.72
2022-08-22T18:54:50.418Z,46.50
2022-08-22T18:56:55.303Z,46.95
2022-08-22T18:59:06.865Z,47.16
2022-08-22T19:01:44.480Z,47.17
2022-08-22T19:04:08.881Z,47.90
2022-08-22T19:06:43.134Z,48.25
2022-08-22T19:09:02.726Z,48.68
2022-08-22T19:11:13.194Z,48.72
2022-08-22T19:13:37.960Z,49.55
2022-08-22T19:15:49.136Z,49.37
2022-08-22T19:18:05.743Z,49.72
2022-08-22T19:20:28.129Z,49.79
2022-08-22T19:22:34.114Z,49.99
2022-08-22T19:25:03.562Z,50.49
2022-08-22T19:27:25.457Z,50.51
2022-08-22T19:29:54.080Z,51.41
2022-08-22T19:31:58.194Z,51.70
2022-08-22T19:34:19.989Z,51.77
2022-08-22T19:36:33.898Z,52.17
2022-08-22T19:38:58.519Z,52.23
2022-08-22T19:41:03.117Z,52.88
2022-08-22T19:43:20.991Z,53.16
2022-08-22T19:45:28.896Z,52.99
2022-08-22T19:47:35.028Z,52.80
2022-08-22T19:49:39.979Z,53.67
2022-08-22T19:51:43.008Z,53.25
2022-08-22T19:53:52.146Z,53.33
2022-08-22T19:56:20.112Z,53.36
2022-08-22T19:58:32.011Z,53.52
2022-08-22T20:00:48.387Z,54.13
2022-08-22T20:03:01.842Z,53.81
2022-08-22T20:05:14.431Z,54.75
2022-08-22T20:07:30.183Z,55.15
2022-08-22T20:09:39.397Z,55.72
2022-08-22T20:11:47.134Z,55.55
2022-08-22T20:13:50.086Z,55.53
2022-08-22T20:16:08.428Z,55.74
2022-08-22T20:18:11.894Z,55.77
2022-08-22T20:20:40.455Z,55.57
2022-08-22T20:22:45.949Z,55.96
2022-08-22T20:24:53.189Z,56.81
2022-08-22T20:27:15.749Z,57.06
2022-08-22T20:29:20.190Z,56.70
2022-08-22T20:31:26.551Z,56.95
2022-08-22T20:33:33.220Z,56.78
2022-08-22T20:35:40.194Z,56.79
2022-08-22T20:38:05.907Z,56.90
2022-08-22T20:40:26.385Z,57.02
2022-08-22T20:42:46.652Z,57.19
2022-08-22T20:44:54.624Z,56.75
2022-08-22T20:47:02.482Z,57.35
2022-08-22T20:49:07.549Z,57.20
2022-08-22T20:51:14.568Z,57.40
2022-08-22T20:53:20.629Z,57.63
2022-08-22T20:55:31.747Z,58.24
2022-08-22T20:57:36.194Z,58.45
2022-08-22T20:59:42.465Z,59.37
2022-08-22T21:01:45.848Z,60.04
2022-08-22T21:03:50.488Z,60.46
2022-08-22T21:05:53.497Z,60.48
2022-08-22T21:08:04.838Z,61.28
2022-08-22T21:10:35.629Z,61.65
2022-08-22T21:12:38.741Z,62.18
2022-08-22T21:14:46.177Z,62.64
2022-08-22T21:16:49.846Z,63.15
2022-08-22T21:18:54.633Z,63.27
2022-08-22T21:21:17.030Z,63.80
2022-08-22T21:23:21.020Z,63.93
2022-08-22T21:25:24.257Z,64.39
2022-08-22T21:27:30.766Z,64.51
2022-08-22T21:29:34.351Z,64.85
2022-08-22T21:31:45.312Z,64.91
2022-08-22T21:33:50.090Z,64.96
2022-08-22T21:35:57.845Z,65.19
2022-08-22T21:38:01.759Z,65.49
2022-08-22T21:40:10.589Z,65.38
2022-08-22T21:42:24.843Z,65.75
2022-08-22T21:44:36.157Z,65.66
2022-08-22T21:46:40.591Z,65.87
2022-08-22T21:48:45.885Z,66.23
2022-08-22T21:50:48.902Z,65.90
2022-08-22T21:53:03.152Z,66.47
2022-08-22T21:55:17.724Z,66.65
2022-08-22T21:57:36.675Z,66.71
2022-08-22T21:59:51.905Z,67.02
2022-08-22T22:02:28.676Z,66.65
2022-08-22T22:04:31.722Z,66.70
2022-08-22T22:06:34.675Z,66.86
2022-08-22T22:08:37.657Z,66.77
2022-08-22T22:10:43.359Z,66.58
2022-08-22T22:12:48.164Z,66.70
2022-08-22T22:14:51.533Z,66.78
2022-08-22T22:16:54.487Z,66.95
2022-08-22T22:18:59.223Z,67.19
2022-08-22T22:21:02.614Z,67.14
2022-08-22T22:23:06.152Z,66.95
2022-08-22T22:25:40.676Z,66.61
2022-08-22T22:27:33.010Z,66.51
2022-08-22T22:29:36.784Z,66.34
2022-08-22T22:31:39.852Z,66.38
2022-08-22T22:33:43.736Z,66.53
2022-08-22T22:35:49.142Z,66.47
2022-08-22T22:37:52.435Z,66.17
2022-08-22T22:39:56.024Z,66.16
2022-08-22T22:41:59.087Z,66.01
2022-08-22T22:44:02.190Z,66.45
2022-08-22T22:46:08.275Z,65.97
2022-08-22T22:48:11.303Z,66.20
2022-08-22T22:50:20.555Z,66.85
2022-08-22T22:52:25.510Z,66.97
2022-08-22T22:54:29.782Z,67.78
2022-08-22T22:56:32.879Z,67.58
2022-08-22T22:58:38.504Z,68.01
2022-08-22T23:00:42.411Z,68.71
2022-08-22T23:02:45.530Z,69.09
2022-08-22T23:04:52.903Z,69.62
2022-08-22T23:06:55.992Z,69.33
2022-08-22T23:09:00.564Z,69.29
2022-08-22T23:11:10.541Z,69.24
2022-08-22T23:13:13.833Z,70.43
2022-08-22T23:15:16.937Z,70.42
2022-08-22T23:17:20.175Z,69.85
2022-08-22T23:19:23.779Z,70.04
2022-08-22T23:21:30.423Z,70.24
2022-08-22T23:23:33.445Z,70.44
2022-08-22T23:25:37.893Z,69.69
2022-08-22T23:27:40.859Z,70.26
2022-08-22T23:29:43.962Z,70.33
2022-08-22T23:31:51.470Z,70.11
2022-08-22T23:33:54.608Z,70.03
2022-08-22T23:36:00.015Z,69.40
2022-08-22T23:38:03.076Z,69.59
2022-08-22T23:40:09.445Z,69.38
2022-08-22T23:42:14.671Z,69.98
2022-08-22T23:44:22.299Z,70.67
2022-08-22T23:46:27.048Z,71.11
2022-08-22T23:48:29.975Z,71.79
2022-08-22T23:50:36.001Z,72.19
2022-08-22T23:52:38.990Z,73.16
2022-08-22T23:54:42.663Z,73.33
2022-08-22T23:56:47.439Z,74.02
2022-08-22T23:58:53.302Z,74.98
